Time;durP1;ratioP1;P1;durP2;ratioP2;P2;SDS_P1;SDS_P2;PMS_P1;PMS_P2;Temp;Humidity;BMP_temperature;BMP_pressure;BME280_temperature;BME280_humidity;BME280_pressure;Samples;Min_cycle;Max_cycle;Signal;HPM_P1;HPM_P2
2023/09/07 00:01:19;;;;;;;9.40;5.38;;;;;;;24.86;56.61;101989.22;5116013;28;20046;-72
2023/09/07 00:03:45;;;;;;;8.80;5.13;;;;;;;24.95;56.46;102009.03;5112848;28;20039;-72
2023/09/07 00:06:10;;;;;;;9.10;5.18;;;;;;;24.76;56.56;101972.28;5111606;28;20027;-73
2023/09/07 00:08:36;;;;;;;6.38;4.63;;;;;;;24.80;56.59;101979.06;5115703;28;20051;-73
2023/09/07 00:11:05;;;;;;;7.00;4.78;;;;;;;24.93;56.41;102000.22;5111317;28;20028;-73
2023/09/07 00:13:31;;;;;;;9.45;5.05;;;;;;;24.85;56.46;101979.38;5110286;27;20039;-72
2023/09/07 00:16:02;;;;;;;8.13;5.05;;;;;;;24.93;56.50;101995.63;5119809;28;20020;-73
2023/09/07 00:18:27;;;;;;;6.63;4.47;;;;;;;24.52;56.38;101923.56;5109297;28;20032;-73
2023/09/07 00:20:53;;;;;;;7.65;3.92;;;;;;;24.90;56.43;101993.28;5114958;28;20037;-73
2023/09/07 00:23:19;;;;;;;6.43;4.13;;;;;;;24.78;56.17;101972.97;5101874;28;20016;-73
2023/09/07 00:25:45;;;;;;;7.63;4.38;;;;;;;24.90;56.28;101984.28;5109334;28;20019;-72
2023/09/07 00:28:10;;;;;;;5.78;4.35;;;;;;;24.89;56.45;101991.59;5113871;28;20045;-72
2023/09/07 00:30:36;;;;;;;6.00;4.50;;;;;;;24.87;56.10;101985.47;5114035;28;20046;-72
2023/09/07 00:33:01;;;;;;;7.70;4.22;;;;;;;24.89;56.32;101985.28;5108423;28;20027;-72
2023/09/07 00:35:26;;;;;;;5.10;4.07;;;;;;;24.89;56.14;101988.00;5118646;28;20049;-72
2023/09/07 00:37:51;;;;;;;6.30;4.35;;;;;;;24.88;56.15;101994.47;5113862;28;20036;-72
2023/09/07 00:40:17;;;;;;;6.22;3.55;;;;;;;24.79;56.09;101985.53;5107039;28;20038;-72
2023/09/07 00:42:42;;;;;;;4.35;3.40;;;;;;;24.87;56.23;101996.34;5122430;28;20392;-72
2023/09/07 00:45:08;;;;;;;5.18;3.33;;;;;;;24.82;56.07;101984.34;5112427;28;20027;-72
2023/09/07 00:47:37;;;;;;;5.53;3.78;;;;;;;24.86;55.93;101991.94;5107603;28;20024;-70
2023/09/07 00:50:06;;;;;;;5.95;4.10;;;;;;;24.86;56.21;101991.09;5118676;28;20020;-70
2023/09/07 00:52:32;;;;;;;5.60;3.35;;;;;;;24.77;56.31;101976.72;5111387;28;20058;-70
2023/09/07 00:54:57;;;;;;;6.97;3.25;;;;;;;24.80;55.83;101980.94;5110454;28;20481;-70
2023/09/07 00:57:23;;;;;;;4.20;3.05;;;;;;;24.84;56.10;101990.41;5117955;28;20089;-70
2023/09/07 00:59:48;;;;;;;5.72;3.70;;;;;;;24.83;55.98;101992.31;5109063;28;20020;-70
2023/09/07 01:02:13;;;;;;;4.50;3.22;;;;;;;24.60;55.74;101959.69;5105655;28;20027;-70
2023/09/07 01:04:39;;;;;;;4.28;3.10;;;;;;;24.83;55.84;101991.47;5113912;28;20036;-72
2023/09/07 01:07:15;;;;;;;4.80;3.10;;;;;;;24.74;55.63;101971.63;5108331;27;20451;-72
2023/09/07 01:09:42;;;;;;;4.97;2.80;;;;;;;24.81;55.62;101979.94;5103928;28;20070;-72
2023/09/07 01:12:10;;;;;;;4.50;3.03;;;;;;;24.72;55.65;101965.50;5103871;28;20036;-72
2023/09/07 01:14:36;;;;;;;4.28;3.13;;;;;;;24.80;55.83;101981.78;5113013;27;20028;-72
2023/09/07 01:17:03;;;;;;;3.85;3.10;;;;;;;24.61;55.66;101950.50;5108782;28;20036;-71
2023/09/07 01:19:31;;;;;;;4.35;2.63;;;;;;;24.78;55.56;101977.56;5104962;28;20023;-72
2023/09/07 01:21:57;;;;;;;4.07;2.75;;;;;;;24.78;55.46;101974.84;5107943;28;20031;-72
2023/09/07 01:24:23;;;;;;;3.83;2.65;;;;;;;24.68;55.41;101961.50;5105598;28;20035;-72
2023/09/07 01:26:49;;;;;;;3.53;2.50;;;;;;;24.58;55.48;101944.56;5106111;28;20039;-72
2023/09/07 01:29:16;;;;;;;5.68;3.08;;;;;;;24.77;55.30;101974.00;5103746;28;20027;-72
2023/09/07 01:31:42;;;;;;;6.05;2.90;;;;;;;24.76;55.45;101972.28;5109953;28;20019;-72
2023/09/07 01:34:08;;;;;;;5.00;3.25;;;;;;;24.72;55.51;101956.50;5107487;28;20023;-72
2023/09/07 01:36:33;;;;;;;3.15;2.55;;;;;;;24.76;55.38;101966.00;5108727;28;20024;-72
2023/09/07 01:38:59;;;;;;;4.50;3.08;;;;;;;24.48;55.42;101924.94;5108158;28;20376;-72
2023/09/07 01:41:24;;;;;;;3.10;2.40;;;;;;;24.74;55.14;101965.34;5107584;28;20036;-72
2023/09/07 01:43:49;;;;;;;2.75;2.20;;;;;;;24.68;55.14;101964.22;5110295;28;20046;-72
2023/09/07 01:46:15;;;;;;;3.22;2.40;;;;;;;24.74;55.31;101965.34;5109813;28;20479;-72
2023/09/07 01:48:42;;;;;;;4.30;2.95;;;;;;;24.57;54.84;101951.03;5106573;28;20020;-72
2023/09/07 01:51:07;;;;;;;3.03;2.30;;;;;;;24.36;55.19;101911.72;5118938;28;20024;-72
2023/09/07 01:53:32;;;;;;;3.38;2.42;;;;;;;24.71;55.22;101966.56;5110875;28;20082;-70
2023/09/07 01:55:59;;;;;;;3.40;2.60;;;;;;;24.72;54.98;101970.97;5118419;28;20030;-72
2023/09/07 01:58:24;;;;;;;5.00;2.40;;;;;;;24.72;55.20;101968.25;5111749;28;20095;-72
2023/09/07 02:00:50;;;;;;;3.33;2.90;;;;;;;24.72;54.99;101967.41;5110728;28;20454;-72
2023/09/07 02:03:15;;;;;;;2.78;2.20;;;;;;;24.71;54.81;101965.72;5112204;28;20086;-72
2023/09/07 02:05:40;;;;;;;3.67;2.40;;;;;;;24.71;54.96;101971.16;5112461;28;20130;-72
2023/09/07 02:08:06;;;;;;;3.47;2.40;;;;;;;24.70;54.73;101970.31;5110054;28;20584;-72
2023/09/07 02:10:31;;;;;;;2.65;1.98;;;;;;;24.69;54.49;101971.34;5114139;28;20155;-72
2023/09/07 02:12:57;;;;;;;3.13;2.38;;;;;;;24.49;54.58;101935.63;5113774;28;20041;-72
2023/09/07 02:15:23;;;;;;;3.95;2.20;;;;;;;24.68;54.80;101966.94;5111667;28;20027;-72
2023/09/07 02:17:48;;;;;;;4.28;2.38;;;;;;;24.47;54.45;101937.69;5114996;28;20024;-72
2023/09/07 02:20:14;;;;;;;2.67;2.38;;;;;;;24.59;54.44;101949.81;5104263;28;20086;-72
2023/09/07 02:22:39;;;;;;;3.58;2.17;;;;;;;24.66;54.65;101966.25;5112000;28;20028;-72
2023/09/07 02:25:05;;;;;;;2.95;2.28;;;;;;;24.66;54.45;101960.81;5118837;28;20049;-72
2023/09/07 02:27:32;;;;;;;2.90;2.20;;;;;;;24.54;54.44;101944.06;5116101;28;20020;-72
2023/09/07 02:29:57;;;;;;;3.15;2.30;;;;;;;24.65;54.47;101957.25;5122311;28;20016;-70
2023/09/07 02:32:22;;;;;;;3.17;2.30;;;;;;;24.54;54.27;101944.06;5118756;28;20031;-70
2023/09/07 02:34:48;;;;;;;4.13;2.28;;;;;;;24.65;54.26;101959.97;5115694;28;20035;-70
2023/09/07 02:37:14;;;;;;;4.13;2.50;;;;;;;24.65;54.35;101950.97;5109451;28;20536;-69
2023/09/07 02:39:40;;;;;;;3.25;2.10;;;;;;;24.58;54.11;101948.13;5120194;28;20028;-70
2023/09/07 02:42:06;;;;;;;2.90;1.98;;;;;;;24.53;54.06;101942.38;5115953;28;20112;-70
2023/09/07 02:44:31;;;;;;;3.80;2.40;;;;;;;24.63;54.22;101962.00;5111098;28;20484;-70
2023/09/07 02:46:56;;;;;;;3.15;1.95;;;;;;;24.52;53.99;101942.59;5120779;28;20023;-70
2023/09/07 02:49:21;;;;;;;3.00;2.33;;;;;;;24.63;54.05;101959.28;5112866;28;20046;-70
2023/09/07 02:51:47;;;;;;;3.38;1.92;;;;;;;24.62;54.12;101957.59;5112870;28;20077;-70
2023/09/07 02:54:12;;;;;;;3.15;2.35;;;;;;;24.48;54.14;101936.66;5119680;28;20024;-69
2023/09/07 02:56:37;;;;;;;2.72;2.00;;;;;;;24.61;53.89;101955.94;5111894;28;20101;-70
2023/09/07 02:59:03;;;;;;;3.75;2.20;;;;;;;24.60;54.20;101959.69;5113500;28;20049;-70
2023/09/07 03:01:28;;;;;;;3.15;2.05;;;;;;;24.42;53.88;101932.78;5117966;28;20028;-70
2023/09/07 03:03:54;;;;;;;2.58;1.90;;;;;;;24.59;54.08;101955.25;5109353;28;20028;-70
2023/09/07 03:06:20;;;;;;;3.15;2.30;;;;;;;24.52;53.97;101945.31;5116653;28;20020;-70
2023/09/07 03:08:45;;;;;;;2.95;2.10;;;;;;;24.37;54.16;101928.88;5116919;28;20072;-72
2023/09/07 03:11:11;;;;;;;2.55;1.90;;;;;;;24.48;53.79;101938.53;5109800;28;20024;-72
2023/09/07 03:13:36;;;;;;;3.08;2.20;;;;;;;24.25;53.79;101912.13;5102739;27;20499;-72
2023/09/07 03:16:03;;;;;;;2.38;2.05;;;;;;;24.54;53.78;101954.09;5122973;28;20027;-72
2023/09/07 03:18:28;;;;;;;2.40;2.03;;;;;;;24.44;53.97;101944.31;5107510;28;20082;-72
2023/09/07 03:20:55;;;;;;;2.53;2.03;;;;;;;24.54;53.80;101963.09;5115845;28;20016;-72
2023/09/07 03:23:21;;;;;;;2.40;1.88;;;;;;;24.54;54.04;101963.09;5107100;28;20972;-72
2023/09/07 03:25:46;;;;;;;2.47;2.00;;;;;;;24.48;53.78;101952.13;5107352;28;20032;-72
2023/09/07 03:28:12;;;;;;;2.40;1.60;;;;;;;24.34;54.03;101927.38;5105673;28;20035;-72
2023/09/07 03:30:38;;;;;;;2.67;2.00;;;;;;;24.42;53.65;101938.22;5106214;28;20023;-72
2023/09/07 03:33:04;;;;;;;2.58;2.17;;;;;;;24.38;53.66;101938.75;5109886;28;20037;-71
2023/09/07 03:35:29;;;;;;;3.05;1.98;;;;;;;24.52;53.73;101967.91;5108781;28;20035;-72
2023/09/07 03:37:55;;;;;;;2.70;2.08;;;;;;;24.52;53.66;101967.06;5108915;28;20028;-72
2023/09/07 03:40:20;;;;;;;2.28;1.88;;;;;;;24.38;53.86;101947.78;5110957;28;20024;-72
2023/09/07 03:42:46;;;;;;;2.42;2.05;;;;;;;24.50;53.75;101959.06;5111030;28;20036;-72
2023/09/07 03:45:11;;;;;;;2.20;2.00;;;;;;;24.40;53.77;101953.84;5109238;28;20043;-72
2023/09/07 03:47:37;;;;;;;2.25;1.85;;;;;;;24.50;53.56;101963.66;5111013;28;20083;-71
2023/09/07 03:50:03;;;;;;;2.05;1.77;;;;;;;24.50;53.61;101961.78;5109366;28;20031;-72
2023/09/07 03:52:31;;;;;;;2.15;1.80;;;;;;;24.44;53.56;101949.75;5109227;28;20024;-72
2023/09/07 03:54:57;;;;;;;2.72;2.00;;;;;;;24.32;53.68;101939.44;5112793;28;20027;-72
2023/09/07 03:57:23;;;;;;;3.03;2.35;;;;;;;24.47;53.66;101954.00;5110119;28;20048;-72
2023/09/07 03:59:49;;;;;;;2.13;1.90;;;;;;;24.46;53.65;101954.16;5109636;28;20062;-72
2023/09/07 04:02:14;;;;;;;3.03;2.15;;;;;;;24.34;53.66;101929.22;5111098;28;20090;-72
2023/09/07 04:04:40;;;;;;;2.28;1.60;;;;;;;24.46;53.36;101955.00;5121905;28;20024;-72
2023/09/07 04:07:05;;;;;;;2.60;2.05;;;;;;;24.46;53.63;101956.88;5110891;28;20028;-72
2023/09/07 04:09:31;;;;;;;2.10;1.70;;;;;;;24.28;53.23;101936.25;5094244;28;20051;-72
2023/09/07 04:11:56;;;;;;;3.55;1.80;;;;;;;24.44;53.43;101957.91;5111207;28;20046;-72
2023/09/07 04:14:21;;;;;;;2.53;1.73;;;;;;;24.42;53.39;101957.25;5110372;27;20092;-72
2023/09/07 04:16:46;;;;;;;2.40;1.85;;;;;;;24.36;53.32;101949.78;5113749;28;20020;-72
2023/09/07 04:19:12;;;;;;;1.98;1.50;;;;;;;24.41;53.37;101958.25;5110160;28;20115;-72
2023/09/07 04:21:38;;;;;;;2.33;1.60;;;;;;;24.42;53.42;101959.97;5113671;28;20750;-72
2023/09/07 04:24:04;;;;;;;2.95;1.80;;;;;;;24.35;53.27;101956.25;5120786;28;20034;-72
2023/09/07 04:26:29;;;;;;;2.17;1.50;;;;;;;24.32;53.27;101950.31;5107413;28;20059;-72
2023/09/07 04:28:54;;;;;;;1.92;1.75;;;;;;;24.32;53.13;101944.88;5112344;28;20372;-71
2023/09/07 04:31:20;;;;;;;1.95;1.58;;;;;;;24.30;53.09;101942.34;5113843;28;20068;-72
2023/09/07 04:33:46;;;;;;;2.53;1.95;;;;;;;24.24;53.46;101942.22;5109103;28;20047;-72
2023/09/07 04:36:13;;;;;;;1.90;1.70;;;;;;;24.37;53.19;101965.09;5119172;28;20038;-72
2023/09/07 04:38:39;;;;;;;2.53;1.75;;;;;;;24.18;53.46;101927.47;5113293;28;20069;-72
2023/09/07 04:41:08;;;;;;;2.50;2.20;;;;;;;24.29;52.95;101943.34;5107720;28;20130;-72
2023/09/07 04:43:34;;;;;;;3.42;1.80;;;;;;;24.34;53.12;101965.44;5115966;28;20034;-72
2023/09/07 04:45:59;;;;;;;2.55;1.77;;;;;;;24.15;53.12;101928.66;5111754;28;20024;-72
2023/09/07 04:48:24;;;;;;;2.30;1.85;;;;;;;24.22;53.24;101947.00;5112539;28;20083;-72
2023/09/07 04:51:00;;;;;;;1.70;1.60;;;;;;;24.30;53.10;101965.94;5117106;28;20055;-72
2023/09/07 04:53:28;;;;;;;2.08;1.85;;;;;;;24.29;53.29;101965.09;5110648;28;20032;-72
2023/09/07 04:55:53;;;;;;;1.83;1.60;;;;;;;24.31;53.08;101965.78;5112284;28;20042;-72
2023/09/07 04:58:19;;;;;;;1.92;1.73;;;;;;;24.30;52.95;101972.25;5115838;28;20035;-72
2023/09/07 05:00:44;;;;;;;2.53;1.70;;;;;;;24.30;53.01;101979.53;5110851;28;20024;-72
2023/09/07 05:03:09;;;;;;;2.25;1.50;;;;;;;24.22;53.11;101963.31;5113872;28;20120;-72
2023/09/07 05:05:35;;;;;;;2.15;1.70;;;;;;;24.28;52.94;101976.16;5113474;28;20037;-72
2023/09/07 05:08:00;;;;;;;2.38;1.80;;;;;;;24.22;52.92;101975.00;5109208;28;20079;-72
2023/09/07 05:10:25;;;;;;;2.45;1.75;;;;;;;24.19;52.87;101969.94;5115702;28;20366;-71
2023/09/07 05:12:51;;;;;;;2.75;1.67;;;;;;;24.01;53.07;101953.91;5112618;28;20023;-70
2023/09/07 05:15:17;;;;;;;1.50;1.23;;;;;;;24.25;52.98;101984.66;5106680;28;20028;-70
2023/09/07 05:17:42;;;;;;;2.25;1.60;;;;;;;24.24;52.70;101985.69;5118450;28;20026;-70
2023/09/07 05:20:09;;;;;;;2.53;1.67;;;;;;;24.17;53.01;101985.53;5110038;28;20031;-70
2023/09/07 05:22:37;;;;;;;2.38;1.80;;;;;;;24.14;52.89;101983.22;5108773;28;20020;-71
2023/09/07 05:25:03;;;;;;;1.55;1.35;;;;;;;23.82;52.89;101932.56;5114958;28;20377;-71
2023/09/07 05:27:28;;;;;;;1.80;1.55;;;;;;;24.22;52.70;101995.91;5110085;28;20065;-70
2023/09/07 05:29:53;;;;;;;1.65;1.50;;;;;;;24.20;52.79;102006.94;5111330;28;20032;-70
2023/09/07 05:32:19;;;;;;;1.92;1.55;;;;;;;23.97;52.76;101966.13;5112840;28;20024;-70
2023/09/07 05:34:44;;;;;;;1.75;1.55;;;;;;;24.04;52.66;101977.97;5108019;28;20019;-70
2023/09/07 05:37:10;;;;;;;1.75;1.40;;;;;;;24.14;52.60;101996.78;5108287;28;20035;-70
2023/09/07 05:39:35;;;;;;;1.92;1.50;;;;;;;24.02;52.50;101973.75;5104168;28;20095;-70
2023/09/07 05:42:00;;;;;;;1.42;1.30;;;;;;;24.16;52.67;102003.72;5106329;28;20067;-70
2023/09/07 05:44:26;;;;;;;3.83;2.50;;;;;;;24.12;47.34;102004.25;5107802;28;20028;-70
2023/09/07 05:46:51;;;;;;;4.25;2.55;;;;;;;23.44;46.92;101971.19;5104692;28;20022;-72
2023/09/07 05:49:16;;;;;;;4.30;2.70;;;;;;;23.12;48.04;102007.38;5100860;28;20031;-72
2023/09/07 05:51:42;;;;;;;3.22;2.80;;;;;;;22.45;48.97;101979.47;5114345;28;20088;-72
2023/09/07 05:54:07;;;;;;;4.38;3.20;;;;;;;21.91;50.43;101957.25;5110542;28;20069;-71
2023/09/07 05:56:33;;;;;;;4.65;3.78;;;;;;;21.48;51.56;101955.53;5112907;28;20030;-72
2023/09/07 05:58:58;;;;;;;5.20;3.67;;;;;;;21.40;52.67;102027.50;5114570;28;20096;-71
2023/09/07 06:01:24;;;;;;;5.43;3.92;;;;;;;21.07;53.64;102001.19;5120847;28;20035;-75
2023/09/07 06:03:49;;;;;;;5.53;4.43;;;;;;;20.70;54.61;101983.31;5120715;28;20024;-74
2023/09/07 06:06:14;;;;;;;9.07;4.32;;;;;;;20.44;55.28;101975.94;5111326;28;20024;-74
2023/09/07 06:08:40;;;;;;;4.63;4.03;;;;;;;20.42;56.09;102025.69;5104964;28;20044;-74
2023/09/07 06:11:05;;;;;;;5.55;3.92;;;;;;;19.94;57.56;101980.91;5112605;28;20023;-74
2023/09/07 06:13:31;;;;;;;4.65;4.25;;;;;;;20.05;58.43;102018.53;5115717;27;20034;-74
2023/09/07 06:15:56;;;;;;;5.88;4.28;;;;;;;19.54;58.79;101959.59;5113154;27;20032;-74
2023/09/07 06:18:21;;;;;;;4.93;4.35;;;;;;;19.61;59.31;102001.19;5114523;28;20627;-73
2023/09/07 06:20:47;;;;;;;6.38;4.47;;;;;;;19.53;59.81;102003.75;5107032;28;20024;-73
2023/09/07 06:23:12;;;;;;;5.32;4.82;;;;;;;19.58;60.22;102028.44;5110181;28;20027;-73
2023/09/07 06:25:38;;;;;;;6.20;4.85;;;;;;;19.44;60.83;102016.25;5116200;28;20027;-73
2023/09/07 06:28:03;;;;;;;6.25;4.82;;;;;;;19.42;61.54;102018.28;5115742;28;20435;-74
2023/09/07 06:30:28;;;;;;;6.20;5.60;;;;;;;19.46;62.46;102033.16;5109441;28;20024;-73
2023/09/07 06:32:56;;;;;;;7.65;5.95;;;;;;;19.46;62.91;102030.47;5117943;28;20035;-73
2023/09/07 06:35:21;;;;;;;8.82;6.10;;;;;;;19.15;63.24;101979.41;5115028;28;20044;-73
2023/09/07 06:37:46;;;;;;;7.60;6.80;;;;;;;19.20;63.42;101987.09;5113010;28;20053;-73
2023/09/07 06:40:13;;;;;;;7.70;6.85;;;;;;;19.54;63.45;102035.13;5117712;28;20024;-74
2023/09/07 06:42:38;;;;;;;8.15;7.45;;;;;;;19.57;64.40;102043.78;5114474;28;20028;-73
2023/09/07 06:45:05;;;;;;;10.35;7.05;;;;;;;19.35;64.80;101995.56;5111109;28;20049;-74
2023/09/07 06:47:30;;;;;;;8.05;6.80;;;;;;;19.68;64.54;102043.66;5122042;28;20020;-73
2023/09/07 06:49:56;;;;;;;10.52;7.82;;;;;;;19.45;65.16;101994.56;5112716;28;20500;-73
2023/09/07 06:52:22;;;;;;;10.18;7.80;;;;;;;19.82;65.08;102046.88;5115430;28;20391;-73
2023/09/07 06:54:51;;;;;;;9.32;7.65;;;;;;;19.61;65.04;101993.97;5122820;28;20047;-73
2023/09/07 06:57:16;;;;;;;8.55;7.32;;;;;;;19.97;65.02;102043.56;5113338;28;20066;-73
2023/09/07 06:59:42;;;;;;;8.98;7.10;;;;;;;19.97;64.04;102035.47;5113763;28;20020;-73
2023/09/07 07:02:08;;;;;;;9.10;7.95;;;;;;;20.13;63.58;102051.00;5117058;28;20437;-74
2023/09/07 07:04:35;;;;;;;8.90;7.80;;;;;;;20.22;63.27;102041.19;5109869;28;20032;-74
2023/09/07 07:07:05;;;;;;;8.57;7.60;;;;;;;20.28;63.25;102042.41;5124847;28;20047;-74
2023/09/07 07:09:30;;;;;;;8.15;7.28;;;;;;;20.39;63.30;102039.50;5118856;28;20044;-73
2023/09/07 07:11:56;;;;;;;8.55;6.97;;;;;;;20.34;62.99;102021.03;5122842;28;20020;-74
2023/09/07 07:14:21;;;;;;;8.18;6.63;;;;;;;20.34;62.74;102004.84;5121907;27;20492;-74
2023/09/07 07:16:46;;;;;;;8.40;7.25;;;;;;;20.27;62.59;101968.66;5114640;28;20031;-74
2023/09/07 07:19:12;;;;;;;8.93;6.65;;;;;;;20.46;62.56;101992.81;5108823;28;20054;-73
2023/09/07 07:21:37;;;;;;;7.60;6.80;;;;;;;20.78;62.39;102033.91;5120176;28;20016;-73
2023/09/07 07:24:06;;;;;;;9.70;6.85;;;;;;;20.99;62.10;102047.09;5113685;28;20028;-73
2023/09/07 07:26:31;;;;;;;10.55;6.72;;;;;;;20.80;61.82;102004.84;5114448;28;20102;-73
2023/09/07 07:28:56;;;;;;;8.15;5.88;;;;;;;20.94;61.67;102018.69;5119942;28;20023;-73
2023/09/07 07:31:21;;;;;;;9.57;6.97;;;;;;;21.25;60.91;102048.00;5114331;28;20032;-73
2023/09/07 07:33:48;;;;;;;6.60;5.70;;;;;;;21.20;61.08;102034.97;5124686;28;20058;-72
2023/09/07 07:36:13;;;;;;;5.07;4.50;;;;;;;21.31;60.90;102038.41;5117187;28;20139;-71
2023/09/07 07:38:39;;;;;;;5.80;4.45;;;;;;;21.53;60.29;102050.59;5110746;28;20059;-71
2023/09/07 07:41:05;;;;;;;4.60;3.92;;;;;;;21.65;60.00;102043.94;5118721;28;20020;-71
2023/09/07 07:43:30;;;;;;;4.38;3.47;;;;;;;21.63;59.23;102017.03;5110389;28;20048;-72
2023/09/07 07:45:55;;;;;;;5.55;4.10;;;;;;;21.87;58.87;102035.25;5106212;28;20051;-71
2023/09/07 07:48:21;;;;;;;4.53;3.33;;;;;;;21.96;58.71;102041.56;5108873;28;20040;-71
2023/09/07 07:50:46;;;;;;;4.88;4.03;;;;;;;21.96;58.38;102028.00;5106817;28;20073;-71
2023/09/07 07:53:12;;;;;;;5.20;3.55;;;;;;;22.13;58.19;102042.50;5109950;28;20117;-71
2023/09/07 07:55:38;;;;;;;4.97;3.60;;;;;;;22.19;58.07;102036.47;5107953;28;20064;-71
2023/09/07 07:58:07;;;;;;;3.83;3.20;;;;;;;22.25;57.48;102037.66;5098803;28;20029;-72
2023/09/07 08:00:34;;;;;;;4.03;3.38;;;;;;;22.25;57.63;102035.81;5110541;28;20158;-71
2023/09/07 08:03:00;;;;;;;4.60;3.40;;;;;;;22.04;57.08;101989.28;5108843;28;20031;-71
2023/09/07 08:05:25;;;;;;;5.43;3.50;;;;;;;22.21;57.21;102016.31;5120933;28;20038;-71
2023/09/07 08:07:53;;;;;;;5.22;3.40;;;;;;;22.43;57.04;102038.44;5110764;28;20071;-71
2023/09/07 08:10:18;;;;;;;3.92;3.42;;;;;;;22.45;57.05;102034.53;5109669;28;20035;-71
2023/09/07 08:12:44;;;;;;;5.07;3.30;;;;;;;22.28;56.89;102008.38;5108068;28;20045;-71
2023/09/07 08:15:09;;;;;;;4.05;3.38;;;;;;;22.28;56.70;102002.97;5112296;27;20050;-71
2023/09/07 08:17:35;;;;;;;3.83;3.17;;;;;;;22.38;56.79;102010.94;5110421;28;20653;-71
2023/09/07 08:20:00;;;;;;;5.80;3.90;;;;;;;22.35;56.76;102001.31;5109078;28;20031;-71
2023/09/07 08:22:27;;;;;;;3.78;3.45;;;;;;;22.57;56.62;102029.66;5112995;28;20444;-71
2023/09/07 08:24:53;;;;;;;3.70;2.85;;;;;;;22.39;56.67;102002.69;5110338;28;20035;-71
2023/09/07 08:27:19;;;;;;;3.78;2.90;;;;;;;22.60;56.45;102028.44;5120029;28;20028;-71
2023/09/07 08:29:51;;;;;;;3.50;3.15;;;;;;;22.48;56.27;101997.28;5112786;28;20030;-71
2023/09/07 08:32:16;;;;;;;3.50;3.17;;;;;;;22.48;56.25;101994.56;5112335;28;20024;-71
2023/09/07 08:34:42;;;;;;;3.92;3.35;;;;;;;22.66;56.22;102025.09;5109989;28;20026;-71
2023/09/07 08:37:10;;;;;;;4.07;3.08;;;;;;;22.54;56.44;102002.88;5114014;28;20120;-71
2023/09/07 08:39:41;;;;;;;4.07;3.40;;;;;;;22.66;56.28;102016.97;5111523;28;20085;-71
2023/09/07 08:42:07;;;;;;;4.53;3.25;;;;;;;22.48;56.22;101992.69;5111259;28;20024;-71
2023/09/07 08:44:33;;;;;;;4.93;3.45;;;;;;;22.54;56.29;101991.19;5122352;28;20058;-71
2023/09/07 08:47:03;;;;;;;3.30;2.70;;;;;;;22.71;56.29;102017.28;5109268;28;20260;-71
2023/09/07 08:49:29;;;;;;;3.92;2.95;;;;;;;22.72;56.37;102013.56;5104248;28;20020;-71
2023/09/07 08:51:59;;;;;;;3.63;2.88;;;;;;;22.73;56.40;102009.03;5113431;28;20153;-71
2023/09/07 08:54:24;;;;;;;4.93;3.10;;;;;;;22.60;56.58;101996.78;5108632;28;20034;-72
2023/09/07 08:56:50;;;;;;;4.20;3.47;;;;;;;22.62;56.22;101999.31;5115547;28;20027;-71
2023/09/07 08:59:15;;;;;;;3.50;3.08;;;;;;;22.76;56.29;102012.22;5113167;28;20019;-71
2023/09/07 09:01:41;;;;;;;3.45;3.15;;;;;;;22.64;56.31;101989.16;5107043;28;20490;-71
2023/09/07 09:04:07;;;;;;;3.13;2.80;;;;;;;22.78;56.33;102015.63;5116856;28;20037;-71
2023/09/07 09:06:32;;;;;;;3.70;3.13;;;;;;;22.78;56.16;102007.50;5112915;28;20021;-72
2023/09/07 09:08:58;;;;;;;3.35;3.05;;;;;;;22.80;56.16;102007.31;5106490;28;20407;-71
2023/09/07 09:11:24;;;;;;;3.67;3.05;;;;;;;22.44;56.24;101950.69;5118079;28;20095;-72
2023/09/07 09:13:52;;;;;;;3.50;2.95;;;;;;;22.81;56.33;102011.72;5113546;27;20015;-71
2023/09/07 09:16:18;;;;;;;3.28;2.60;;;;;;;22.78;56.28;101998.50;5108960;28;20049;-72
2023/09/07 09:18:59;;;;;;;4.28;3.17;;;;;;;22.65;56.41;101985.44;5116942;28;20028;-72
2023/09/07 09:21:26;;;;;;;3.30;2.92;;;;;;;22.83;56.36;102005.13;5110211;28;20028;-71
2023/09/07 09:23:53;;;;;;;3.50;2.78;;;;;;;22.84;56.38;102001.38;5112293;28;20045;-71
2023/09/07 09:26:19;;;;;;;3.80;3.10;;;;;;;22.15;56.60;101886.97;5114486;28;20080;-71
2023/09/07 09:28:45;;;;;;;3.17;2.88;;;;;;;22.70;56.48;101981.22;5107688;28;20074;-71
2023/09/07 09:31:12;;;;;;;3.22;2.83;;;;;;;22.70;56.59;101977.66;5109051;28;20024;-72
2023/09/07 09:33:38;;;;;;;3.63;2.83;;;;;;;22.88;56.47;102010.88;5113944;28;20027;-72
2023/09/07 09:36:04;;;;;;;4.00;3.22;;;;;;;22.89;56.63;102009.00;5106641;28;20466;-71
2023/09/07 09:38:31;;;;;;;2.53;2.33;;;;;;;22.85;56.48;101996.81;5116551;28;20024;-71
2023/09/07 09:40:58;;;;;;;3.40;2.60;;;;;;;22.76;56.41;101973.41;5112480;28;20031;-71
2023/09/07 09:43:25;;;;;;;3.80;3.35;;;;;;;22.91;56.58;101999.72;5111907;28;20111;-72
2023/09/07 09:45:53;;;;;;;2.80;2.50;;;;;;;22.92;56.65;101996.00;5117986;28;20071;-71
2023/09/07 09:48:20;;;;;;;4.57;2.88;;;;;;;22.93;56.80;101994.13;5110548;28;20393;-71
2023/09/07 09:50:49;;;;;;;3.60;3.22;;;;;;;22.94;56.97;101991.28;5108219;28;20020;-72
2023/09/07 09:53:20;;;;;;;3.38;2.80;;;;;;;22.97;56.87;101994.66;5116909;28;20024;-71
2023/09/07 09:55:49;;;;;;;2.90;2.50;;;;;;;22.97;57.09;101989.22;5107986;28;20063;-71
2023/09/07 09:58:16;;;;;;;3.28;2.40;;;;;;;22.92;57.05;101981.59;5106736;28;20024;-72
2023/09/07 10:00:50;;;;;;;3.00;2.70;;;;;;;22.82;56.94;101951.06;5103065;28;20103;-71
2023/09/07 10:03:17;;;;;;;3.28;2.55;;;;;;;23.01;57.22;101988.72;5101342;28;20028;-72
2023/09/07 10:05:46;;;;;;;2.85;2.58;;;;;;;23.01;57.20;101980.56;5107202;28;20023;-72
2023/09/07 10:08:17;;;;;;;3.38;2.88;;;;;;;22.90;57.23;101960.06;5105657;28;20048;-72
2023/09/07 10:10:43;;;;;;;2.67;2.47;;;;;;;22.75;57.19;101931.06;5108695;28;20030;-71
2023/09/07 10:13:08;;;;;;;3.05;2.75;;;;;;;23.06;57.11;101980.06;5092704;28;20032;-72
2023/09/07 10:15:38;;;;;;;3.78;2.92;;;;;;;22.82;57.38;101943.78;5109645;28;20056;-72
2023/09/07 10:18:04;;;;;;;2.83;2.53;;;;;;;23.11;57.26;101975.00;5108390;28;20019;-72
2023/09/07 10:20:35;;;;;;;2.90;2.55;;;;;;;23.12;57.20;101982.94;5109160;28;20465;-71
2023/09/07 10:23:04;;;;;;;3.00;2.70;;;;;;;22.70;57.36;101904.47;5122099;28;20020;-71
2023/09/07 10:25:30;;;;;;;3.53;2.60;;;;;;;23.16;57.50;101973.44;5109477;28;20027;-71
2023/09/07 10:27:55;;;;;;;2.78;2.40;;;;;;;23.08;57.47;101959.88;5113611;28;20039;-72
2023/09/07 10:30:23;;;;;;;3.35;2.72;;;;;;;23.21;57.51;101967.50;5118264;28;20020;-72
2023/09/07 10:32:49;;;;;;;2.30;2.10;;;;;;;23.25;57.40;101973.44;5110744;28;20020;-72
2023/09/07 10:35:16;;;;;;;3.28;2.90;;;;;;;22.98;57.47;101923.09;5109582;28;20030;-72
2023/09/07 10:37:45;;;;;;;3.22;2.83;;;;;;;23.30;57.46;101968.34;5109981;28;20016;-71
2023/09/07 10:40:11;;;;;;;2.83;2.55;;;;;;;23.19;57.78;101951.41;5115997;28;20059;-72
2023/09/07 10:42:37;;;;;;;3.03;2.70;;;;;;;23.34;57.65;101965.09;5114469;28;20115;-72
2023/09/07 10:45:11;;;;;;;2.72;2.53;;;;;;;23.35;57.60;101957.81;5111658;28;20023;-72
2023/09/07 10:47:40;;;;;;;3.90;2.65;;;;;;;23.32;57.56;101945.44;5115523;28;20024;-72
2023/09/07 10:50:06;;;;;;;3.08;2.78;;;;;;;23.42;57.62;101959.66;5123304;28;20050;-71
2023/09/07 10:52:33;;;;;;;3.47;2.92;;;;;;;23.46;57.49;101952.03;5112400;28;20027;-72
2023/09/07 10:54:58;;;;;;;3.33;3.03;;;;;;;23.19;57.64;101901.69;5116206;28;20020;-71
2023/09/07 10:57:24;;;;;;;3.33;2.88;;;;;;;23.45;57.61;101944.91;5112541;28;20082;-72
2023/09/07 10:59:49;;;;;;;4.70;3.20;;;;;;;23.46;57.63;101930.31;5112358;28;20047;-72
2023/09/07 11:02:15;;;;;;;3.60;2.80;;;;;;;23.55;57.60;101944.72;5116763;28;20530;-72
2023/09/07 11:04:41;;;;;;;3.30;2.70;;;;;;;23.38;57.59;101905.91;5110699;28;20083;-72
2023/09/07 11:07:06;;;;;;;3.92;2.95;;;;;;;23.48;57.57;101913.84;5116437;28;20054;-72
2023/09/07 11:09:31;;;;;;;3.88;3.33;;;;;;;23.62;57.42;101927.56;5116552;28;20139;-69
2023/09/07 11:11:57;;;;;;;3.55;2.58;;;;;;;23.30;57.32;101863.34;5108736;28;20028;-69
2023/09/07 11:14:22;;;;;;;3.38;3.03;;;;;;;23.68;57.38;101921.44;5117209;27;20027;-69
2023/09/07 11:16:48;;;;;;;3.10;2.80;;;;;;;23.69;57.51;101920.41;5121471;28;20412;-69
2023/09/07 11:19:15;;;;;;;3.15;2.85;;;;;;;23.73;57.35;101917.34;5114178;28;20039;-69